Time;durP1;ratioP1;P1;durP2;ratioP2;P2;SDS_P1;SDS_P2;PMS_P1;PMS_P2;Temp;Humidity;BMP_temperature;BMP_pressure;BME280_temperature;BME280_humidity;BME280_pressure;Samples;Min_cycle;Max_cycle;Signal;HPM_P1;HPM_P2
2023/10/03 00:01:12;;;;;;;17.50;6.30;;;11.30;99.90;;;;;;4446370;28;656689;-67
2023/10/03 00:04:00;;;;;;;13.27;5.77;;;11.40;99.90;;;;;;4425642;28;656701;-67
2023/10/03 00:06:47;;;;;;;14.60;6.20;;;11.30;99.90;;;;;;4442088;28;655642;-66
2023/10/03 00:09:35;;;;;;;14.20;6.43;;;11.30;99.90;;;;;;4454130;28;655529;-67
2023/10/03 00:12:23;;;;;;;15.00;6.40;;;11.30;99.90;;;;;;4426947;28;656040;-67
2023/10/03 00:15:12;;;;;;;13.90;6.57;;;11.30;99.90;;;;;;4447287;28;657260;-67
2023/10/03 00:18:01;;;;;;;14.90;7.53;;;11.30;99.90;;;;;;4426365;28;657940;-67
2023/10/03 00:20:48;;;;;;;18.80;6.40;;;11.40;99.90;;;;;;4432779;28;655587;-67
2023/10/03 00:23:35;;;;;;;16.30;6.70;;;11.40;99.90;;;;;;4452957;28;656513;-67
2023/10/03 00:26:23;;;;;;;12.87;6.33;;;11.40;99.90;;;;;;4433625;27;655011;-67
2023/10/03 00:29:13;;;;;;;15.30;6.40;;;11.40;99.90;;;;;;4451423;28;655848;-66
2023/10/03 00:32:02;;;;;;;19.27;6.77;;;11.50;99.90;;;;;;4429860;28;655931;-67
2023/10/03 00:34:50;;;;;;;14.97;6.13;;;11.50;99.90;;;;;;4425744;28;656296;-67
2023/10/03 00:37:38;;;;;;;19.57;6.37;;;11.50;99.90;;;;;;4432523;27;655341;-67
2023/10/03 00:40:28;;;;;;;15.13;6.63;;;11.50;99.90;;;;;;4448031;28;657890;-66
2023/10/03 00:43:15;;;;;;;14.37;5.90;;;11.50;99.90;;;;;;4422729;28;655980;-66
2023/10/03 00:46:03;;;;;;;12.70;6.03;;;11.50;99.90;;;;;;4427227;28;655345;-67
2023/10/03 00:48:51;;;;;;;18.17;6.37;;;11.50;99.90;;;;;;4440766;28;656315;-67
2023/10/03 00:51:41;;;;;;;12.57;6.07;;;11.50;99.90;;;;;;4435814;28;656072;-67
2023/10/03 00:54:30;;;;;;;13.37;5.93;;;11.50;99.90;;;;;;4432278;28;655790;-67
2023/10/03 00:57:17;;;;;;;12.63;5.63;;;11.40;99.90;;;;;;4445191;28;655450;-67
2023/10/03 01:00:08;;;;;;;14.17;5.87;;;11.50;99.90;;;;;;4448408;28;656628;-67
2023/10/03 01:02:55;;;;;;;13.53;5.20;;;11.50;99.90;;;;;;4426360;28;656997;-67
2023/10/03 01:05:43;;;;;;;11.53;5.23;;;11.50;99.90;;;;;;4425020;28;655961;-67
2023/10/03 01:08:32;;;;;;;11.20;5.47;;;11.40;99.90;;;;;;4447953;28;656548;-67
2023/10/03 01:11:20;;;;;;;12.30;5.83;;;11.40;99.90;;;;;;4426315;28;656006;-67
2023/10/03 01:14:08;;;;;;;18.07;5.60;;;11.40;99.90;;;;;;4441761;28;655909;-67
2023/10/03 01:16:56;;;;;;;15.63;6.30;;;11.40;99.90;;;;;;4454338;28;656302;-67
2023/10/03 01:19:43;;;;;;;11.80;5.73;;;11.40;99.90;;;;;;4430320;28;655469;-67
2023/10/03 01:22:31;;;;;;;12.97;5.20;;;11.40;99.90;;;;;;4443454;28;656520;-67
2023/10/03 01:25:20;;;;;;;16.63;5.20;;;11.30;99.90;;;;;;4426995;28;656785;-67
2023/10/03 01:28:08;;;;;;;14.27;5.63;;;11.30;99.90;;;;;;4424966;28;655867;-67
2023/10/03 01:30:55;;;;;;;12.37;5.30;;;11.30;99.90;;;;;;4445277;28;657501;-67
2023/10/03 01:33:42;;;;;;;12.23;5.07;;;11.30;99.90;;;;;;4445000;28;654911;-67
2023/10/03 01:36:31;;;;;;;10.97;5.33;;;11.30;99.90;;;;;;4451588;28;654902;-67
2023/10/03 01:39:19;;;;;;;10.17;5.33;;;11.30;99.90;;;;;;4427440;28;656658;-67
2023/10/03 01:42:09;;;;;;;11.97;5.50;;;11.30;99.90;;;;;;4444244;28;656063;-67
2023/10/03 01:44:56;;;;;;;12.53;5.43;;;11.20;99.90;;;;;;4424785;28;655644;-67
2023/10/03 01:47:45;;;;;;;10.82;4.95;;;11.20;99.90;;;;;;4430579;28;655588;-67
2023/10/03 01:50:34;;;;;;;10.43;5.10;;;11.20;99.90;;;;;;4446229;28;655338;-67
2023/10/03 01:53:23;;;;;;;17.53;7.43;;;11.20;99.90;;;;;;4446606;28;656142;-67
2023/10/03 01:56:10;;;;;;;18.73;7.70;;;11.20;99.90;;;;;;4427779;28;655673;-67
2023/10/03 01:59:00;;;;;;;17.63;7.03;;;11.20;99.90;;;;;;4429069;28;655848;-67
2023/10/03 02:01:47;;;;;;;25.60;9.33;;;11.20;99.90;;;;;;4432997;28;655442;-67
2023/10/03 02:04:35;;;;;;;22.13;8.03;;;11.10;99.90;;;;;;4460347;28;657243;-67
2023/10/03 02:07:24;;;;;;;15.00;6.63;;;11.10;99.90;;;;;;4449869;28;655364;-68
2023/10/03 02:10:12;;;;;;;19.37;8.30;;;11.10;99.90;;;;;;4457338;28;655467;-67
2023/10/03 02:12:59;;;;;;;17.90;6.87;;;11.20;99.90;;;;;;4431921;28;656430;-67
2023/10/03 02:15:49;;;;;;;15.97;5.87;;;11.10;99.90;;;;;;4451528;28;655175;-67
2023/10/03 02:18:36;;;;;;;13.38;5.82;;;11.10;99.90;;;;;;4432632;28;655277;-67
2023/10/03 02:21:24;;;;;;;13.50;5.03;;;11.00;99.90;;;;;;4426360;28;655359;-67
2023/10/03 02:24:13;;;;;;;16.77;6.17;;;10.90;99.90;;;;;;4449342;28;655306;-67
2023/10/03 02:27:05;;;;;;;13.13;6.30;;;10.90;99.90;;;;;;4429688;27;656893;-67
2023/10/03 02:29:52;;;;;;;12.70;5.90;;;10.90;99.90;;;;;;4430763;28;655185;-67
2023/10/03 02:32:42;;;;;;;10.13;5.20;;;10.90;99.90;;;;;;4456348;28;656166;-67
2023/10/03 02:35:29;;;;;;;12.67;5.70;;;10.80;99.90;;;;;;4436540;28;655939;-67
2023/10/03 02:38:24;;;;;;;12.13;6.03;;;10.90;99.90;;;;;;4451233;28;655756;-67
2023/10/03 02:41:12;;;;;;;11.70;5.80;;;10.90;99.90;;;;;;4423677;28;655566;-67
2023/10/03 02:44:00;;;;;;;14.43;5.60;;;10.90;99.90;;;;;;4437685;28;656796;-67
2023/10/03 02:46:48;;;;;;;17.15;5.63;;;10.80;99.90;;;;;;4428734;28;655711;-68
2023/10/03 02:49:37;;;;;;;12.53;5.60;;;10.80;99.90;;;;;;4454217;28;656588;-67
2023/10/03 02:52:24;;;;;;;11.43;5.57;;;10.80;99.90;;;;;;4430801;28;656625;-67
2023/10/03 02:55:13;;;;;;;11.63;5.53;;;10.70;99.90;;;;;;4450474;28;655665;-67
2023/10/03 02:58:01;;;;;;;13.30;5.60;;;10.70;99.90;;;;;;4424262;28;656655;-67
2023/10/03 03:00:49;;;;;;;10.83;5.10;;;10.70;99.90;;;;;;4427467;28;656101;-67
2023/10/03 03:03:38;;;;;;;11.77;5.47;;;10.60;99.90;;;;;;4447364;28;655963;-67
2023/10/03 03:06:27;;;;;;;19.00;5.67;;;10.70;99.90;;;;;;4424944;28;657472;-67
2023/10/03 03:09:23;;;;;;;10.10;4.90;;;10.70;99.90;;;;;;4431001;28;656619;-67
2023/10/03 03:12:13;;;;;;;12.20;5.20;;;10.60;99.90;;;;;;4419633;28;656128;-68
2023/10/03 03:15:01;;;;;;;14.70;5.07;;;10.60;99.90;;;;;;4424558;28;656460;-67
2023/10/03 03:17:48;;;;;;;14.93;5.27;;;10.60;99.90;;;;;;4430700;28;655466;-68
2023/10/03 03:20:37;;;;;;;10.87;5.30;;;10.60;99.90;;;;;;4456054;28;656807;-67
2023/10/03 03:23:30;;;;;;;12.33;5.03;;;10.60;99.90;;;;;;4436437;28;655808;-67
2023/10/03 03:26:20;;;;;;;13.57;4.83;;;10.60;99.90;;;;;;4410720;27;655556;-67
2023/10/03 03:29:20;;;;;;;10.33;5.33;;;10.60;99.90;;;;;;4448846;28;655575;-67
2023/10/03 03:32:08;;;;;;;17.10;5.07;;;10.60;99.90;;;;;;4452071;28;656110;-68
2023/10/03 03:34:56;;;;;;;12.47;5.13;;;10.60;99.90;;;;;;4449953;28;655533;-67
2023/10/03 03:37:44;;;;;;;14.00;4.93;;;10.50;99.90;;;;;;4432855;28;655898;-67
2023/10/03 03:40:34;;;;;;;13.33;5.13;;;10.50;99.90;;;;;;4451224;28;655140;-67
2023/10/03 03:43:21;;;;;;;10.70;4.90;;;10.40;99.90;;;;;;4427057;28;655410;-67
2023/10/03 03:46:09;;;;;;;11.40;5.20;;;10.40;99.90;;;;;;4428592;28;656104;-68
2023/10/03 03:48:58;;;;;;;9.20;5.13;;;10.50;99.90;;;;;;4450725;28;655543;-67
2023/10/03 03:51:45;;;;;;;13.17;5.40;;;10.40;99.90;;;;;;4424575;28;655282;-67
2023/10/03 03:54:33;;;;;;;12.63;5.53;;;10.40;99.90;;;;;;4444841;28;655425;-67
2023/10/03 03:57:22;;;;;;;12.67;5.23;;;10.40;99.90;;;;;;4455920;28;656030;-67
2023/10/03 04:00:14;;;;;;;11.47;4.80;;;10.40;99.90;;;;;;4426851;28;655371;-67
2023/10/03 04:03:05;;;;;;;8.57;4.47;;;10.40;99.90;;;;;;4422473;28;655721;-67
2023/10/03 04:05:52;;;;;;;12.77;5.33;;;10.30;99.90;;;;;;4444312;28;654919;-67
2023/10/03 04:08:40;;;;;;;9.97;4.67;;;10.30;99.90;;;;;;4455978;28;656519;-67
2023/10/03 04:11:27;;;;;;;12.70;5.00;;;10.30;99.90;;;;;;4430609;28;655071;-67
2023/10/03 04:14:17;;;;;;;11.13;5.10;;;10.40;99.90;;;;;;4452214;28;655237;-67
2023/10/03 04:17:05;;;;;;;12.00;5.37;;;10.40;99.90;;;;;;4433725;28;655938;-67
2023/10/03 04:19:52;;;;;;;9.93;4.53;;;10.40;99.90;;;;;;4432153;28;655751;-68
2023/10/03 04:22:41;;;;;;;8.40;4.87;;;10.30;99.90;;;;;;4456647;28;655782;-67
2023/10/03 04:25:28;;;;;;;10.40;5.30;;;10.40;99.90;;;;;;4428674;28;655213;-67
2023/10/03 04:28:16;;;;;;;12.57;5.17;;;10.40;99.90;;;;;;4445380;28;657138;-67
2023/10/03 04:31:05;;;;;;;10.57;5.30;;;10.50;99.90;;;;;;4431262;28;655290;-68
2023/10/03 04:33:52;;;;;;;16.00;5.57;;;10.50;99.90;;;;;;4444855;28;656346;-68
2023/10/03 04:36:41;;;;;;;14.90;5.93;;;10.40;99.90;;;;;;4451512;28;655003;-68
2023/10/03 04:39:28;;;;;;;17.40;6.10;;;10.40;99.90;;;;;;4426285;28;655795;-68
2023/10/03 04:42:16;;;;;;;11.67;6.33;;;10.40;99.90;;;;;;4453194;28;655757;-68
2023/10/03 04:45:05;;;;;;;12.20;6.17;;;10.40;99.90;;;;;;4431191;28;655797;-68
2023/10/03 04:47:54;;;;;;;15.67;8.00;;;10.30;99.90;;;;;;4427781;28;655502;-67
2023/10/03 04:50:41;;;;;;;14.60;6.47;;;10.40;99.90;;;;;;4448752;28;655859;-67
2023/10/03 04:53:30;;;;;;;12.40;5.73;;;10.40;99.90;;;;;;4427529;28;655862;-68
2023/10/03 04:56:18;;;;;;;16.23;6.27;;;10.40;99.90;;;;;;4445312;28;655905;-68
2023/10/03 04:59:06;;;;;;;11.63;5.00;;;10.40;99.90;;;;;;4449934;28;655577;-68
2023/10/03 05:01:53;;;;;;;14.33;6.27;;;10.40;99.90;;;;;;4427392;28;655187;-68
2023/10/03 05:04:42;;;;;;;11.47;5.87;;;10.30;99.90;;;;;;4452605;28;656068;-67
2023/10/03 05:07:29;;;;;;;12.27;5.57;;;10.40;99.90;;;;;;4426573;28;655992;-67
2023/10/03 05:10:17;;;;;;;14.70;6.90;;;10.40;99.90;;;;;;4450099;28;655265;-68
2023/10/03 05:13:05;;;;;;;13.80;7.13;;;10.40;99.90;;;;;;4427368;28;655460;-68
2023/10/03 05:15:53;;;;;;;13.13;6.83;;;10.40;99.90;;;;;;4437068;28;655673;-68
2023/10/03 05:18:41;;;;;;;18.93;6.80;;;10.40;99.90;;;;;;4450058;28;656158;-68
2023/10/03 05:21:32;;;;;;;14.20;5.93;;;10.50;99.90;;;;;;4432757;28;655647;-68
2023/10/03 05:24:19;;;;;;;12.30;6.50;;;10.50;99.90;;;;;;4431151;28;655324;-68
2023/10/03 05:27:07;;;;;;;14.77;6.03;;;10.60;99.90;;;;;;4456184;27;655660;-68
2023/10/03 05:29:54;;;;;;;15.03;6.40;;;10.70;99.90;;;;;;4430990;28;655377;-68
2023/10/03 05:32:42;;;;;;;13.70;6.00;;;10.80;99.90;;;;;;4453687;28;655337;-68
2023/10/03 05:35:30;;;;;;;16.20;6.87;;;10.80;99.90;;;;;;4433106;28;656260;-68
2023/10/03 05:38:19;;;;;;;15.43;6.57;;;10.90;99.90;;;;;;4452242;28;655951;-68
2023/10/03 05:41:06;;;;;;;17.37;8.83;;;11.00;99.90;;;;;;4430724;28;656192;-67
2023/10/03 05:43:54;;;;;;;22.27;8.47;;;11.10;99.90;;;;;;4427879;28;655618;-67
2023/10/03 05:46:42;;;;;;;27.80;12.00;;;11.10;99.90;;;;;;4460222;28;656340;-68
2023/10/03 05:49:29;;;;;;;22.77;13.50;;;11.30;99.90;;;;;;4430375;28;657911;-67
2023/10/03 05:52:16;;;;;;;19.20;13.00;;;11.40;99.90;;;;;;4450917;28;656668;-68
2023/10/03 05:55:06;;;;;;;15.45;9.20;;;11.50;99.90;;;;;;4433010;28;657235;-68
2023/10/03 05:57:53;;;;;;;18.30;9.03;;;11.70;99.90;;;;;;4434497;28;655694;-68
2023/10/03 06:00:40;;;;;;;14.80;7.20;;;11.80;99.90;;;;;;4454183;28;655626;-68
2023/10/03 06:03:28;;;;;;;18.27;9.40;;;11.90;99.90;;;;;;4436967;28;656197;-68
2023/10/03 06:06:16;;;;;;;17.83;8.80;;;11.90;99.90;;;;;;4457788;28;656756;-68
2023/10/03 06:09:03;;;;;;;15.53;7.27;;;12.10;99.90;;;;;;4438737;28;656258;-69
2023/10/03 06:11:53;;;;;;;16.90;7.43;;;12.30;99.90;;;;;;4457320;28;656500;-68
2023/10/03 06:14:40;;;;;;;14.27;7.77;;;12.50;99.90;;;;;;4428478;28;656124;-68
2023/10/03 06:17:28;;;;;;;15.57;7.13;;;12.70;99.90;;;;;;4428533;27;655740;-68
2023/10/03 06:20:15;;;;;;;16.37;8.03;;;12.80;99.90;;;;;;4455276;28;656826;-68
2023/10/03 06:23:04;;;;;;;13.18;7.55;;;13.00;99.90;;;;;;4439040;28;655835;-68
2023/10/03 06:25:52;;;;;;;13.57;7.30;;;13.20;99.90;;;;;;4453112;27;656445;-69
2023/10/03 06:28:41;;;;;;;16.30;7.37;;;13.50;99.90;;;;;;4431738;28;657125;-68
2023/10/03 06:31:28;;;;;;;15.50;7.30;;;13.70;99.90;;;;;;4434037;28;655499;-68
2023/10/03 06:34:16;;;;;;;12.47;7.00;;;13.90;99.90;;;;;;4458148;27;656833;-68
2023/10/03 06:37:04;;;;;;;15.73;6.73;;;14.10;99.90;;;;;;4439314;28;655659;-68
2023/10/03 06:39:52;;;;;;;14.17;6.57;;;14.30;99.90;;;;;;4455245;28;654565;-68
2023/10/03 06:42:39;;;;;;;12.57;5.83;;;14.50;99.90;;;;;;4428906;28;655643;-68
2023/10/03 06:45:29;;;;;;;12.27;5.60;;;14.70;99.90;;;;;;4449455;28;656295;-68
2023/10/03 06:48:16;;;;;;;11.57;5.60;;;14.90;99.90;;;;;;4429608;28;656006;-69
2023/10/03 06:51:06;;;;;;;11.13;5.27;;;15.10;99.90;;;;;;4437234;27;655564;-71
2023/10/03 06:53:53;;;;;;;10.17;5.00;;;15.30;99.90;;;;;;4434619;28;656116;-68
2023/10/03 06:56:41;;;;;;;14.15;5.30;;;15.60;99.90;;;;;;4460388;28;655842;-68
2023/10/03 06:59:28;;;;;;;13.07;4.90;;;15.80;99.90;;;;;;4432978;28;655346;-67
2023/10/03 07:02:18;;;;;;;12.33;5.40;;;16.10;99.90;;;;;;4452868;28;656711;-68
2023/10/03 07:05:05;;;;;;;12.90;5.20;;;16.30;99.90;;;;;;4425612;28;656719;-69
2023/10/03 07:07:53;;;;;;;12.40;5.03;;;16.50;99.90;;;;;;4430265;27;656216;-67
2023/10/03 07:10:41;;;;;;;11.67;5.20;;;16.70;99.90;;;;;;4454718;28;656713;-68
2023/10/03 07:13:29;;;;;;;12.20;5.30;;;16.90;99.90;;;;;;4434903;28;655774;-67
2023/10/03 07:16:16;;;;;;;13.10;5.60;;;17.10;99.90;;;;;;4451551;28;655346;-68
2023/10/03 07:19:05;;;;;;;8.67;4.90;;;17.30;99.90;;;;;;4430820;28;655394;-67
2023/10/03 07:21:53;;;;;;;11.43;4.80;;;17.50;99.90;;;;;;4442446;28;654752;-67
2023/10/03 07:24:40;;;;;;;11.60;5.53;;;17.60;99.90;;;;;;4453937;28;656634;-67
2023/10/03 07:27:27;;;;;;;14.50;5.23;;;17.80;99.90;;;;;;4452055;27;655622;-67
2023/10/03 07:30:15;;;;;;;12.53;4.63;;;18.00;99.90;;;;;;4461427;27;656905;-68
2023/10/03 07:33:05;;;;;;;13.17;4.63;;;18.20;99.90;;;;;;4433886;28;655699;-67
2023/10/03 07:35:56;;;;;;;9.90;4.83;;;18.40;99.90;;;;;;4452792;28;655856;-67
2023/10/03 07:38:45;;;;;;;19.67;5.13;;;18.50;99.90;;;;;;4432027;28;654194;-67
2023/10/03 07:41:33;;;;;;;13.37;4.60;;;18.70;99.90;;;;;;4432643;28;655516;-67
2023/10/03 07:44:25;;;;;;;10.40;5.07;;;19.00;99.90;;;;;;4451661;28;656005;-67
2023/10/03 07:47:13;;;;;;;10.40;4.70;;;19.20;99.90;;;;;;4411418;28;655595;-67
2023/10/03 07:50:01;;;;;;;9.80;4.77;;;19.40;99.90;;;;;;4449939;28;656679;-67
2023/10/03 07:52:50;;;;;;;13.07;5.13;;;19.40;99.90;;;;;;4438099;28;655177;-67
2023/10/03 07:55:39;;;;;;;11.03;4.90;;;19.60;99.90;;;;;;4452911;28;655154;-67
2023/10/03 07:58:32;;;;;;;8.97;4.70;;;19.70;99.90;;;;;;4451392;27;656195;-67
2023/10/03 08:01:19;;;;;;;11.13;4.70;;;19.70;99.90;;;;;;4411073;27;654602;-67
2023/10/03 08:04:08;;;;;;;10.77;5.27;;;19.90;99.90;;;;;;4448152;28;655616;-67
2023/10/03 08:06:55;;;;;;;11.80;4.97;;;20.10;99.90;;;;;;4420670;27;656622;-67
2023/10/03 08:09:46;;;;;;;11.43;4.87;;;20.30;99.90;;;;;;4436534;28;655382;-66
2023/10/03 08:12:38;;;;;;;11.20;4.87;;;20.50;99.90;;;;;;4428898;27;655433;-67
2023/10/03 08:15:31;;;;;;;14.00;5.07;;;20.70;99.90;;;;;;4432988;27;656330;-67
2023/10/03 08:18:18;;;;;;;9.83;4.80;;;20.70;99.90;;;;;;4408317;27;656292;-67
2023/10/03 08:21:08;;;;;;;14.23;4.72;;;21.00;99.90;;;;;;4449579;28;656350;-67
2023/10/03 08:23:55;;;;;;;11.30;4.50;;;21.10;99.90;;;;;;4424172;28;657282;-67
2023/10/03 08:26:46;;;;;;;10.23;4.67;;;21.40;99.90;;;;;;4432664;28;655863;-67
2023/10/03 08:29:33;;;;;;;9.20;4.37;;;21.60;99.90;;;;;;4435415;28;655365;-66
2023/10/03 08:32:22;;;;;;;11.17;4.77;;;21.60;99.90;;;;;;4452863;28;655638;-67
2023/10/03 08:35:09;;;;;;;11.07;4.67;;;22.00;99.90;;;;;;4420524;28;656448;-66
2023/10/03 08:37:57;;;;;;;17.03;5.40;;;22.10;99.90;;;;;;4458012;27;655536;-67
2023/10/03 08:40:49;;;;;;;9.83;5.13;;;22.30;99.90;;;;;;4428813;28;655993;-67
2023/10/03 08:43:38;;;;;;;9.53;4.53;;;22.40;99.90;;;;;;4425118;28;654047;-67
2023/10/03 08:46:27;;;;;;;12.73;4.87;;;22.50;99.90;;;;;;4425925;28;654718;-67
2023/10/03 08:49:17;;;;;;;11.93;4.70;;;22.80;99.90;;;;;;4432643;28;655563;-66
2023/10/03 08:52:04;;;;;;;16.30;5.57;;;23.00;99.90;;;;;;4425864;28;655564;-67
2023/10/03 08:54:54;;;;;;;12.00;4.93;;;23.20;99.90;;;;;;4445082;27;656429;-67
2023/10/03 08:57:47;;;;;;;17.17;5.27;;;23.40;99.90;;;;;;4427563;28;655747;-67
2023/10/03 09:00:40;;;;;;;15.27;4.90;;;23.40;99.90;;;;;;4399507;28;655827;-67
2023/10/03 09:03:42;;;;;;;12.23;5.17;;;23.80;99.90;;;;;;4406141;28;655313;-67
2023/10/03 09:06:29;;;;;;;15.75;5.22;;;24.00;99.90;;;;;;4427903;28;655571;-67
2023/10/03 09:09:17;;;;;;;13.75;5.05;;;24.10;99.90;;;;;;4432994;28;655776;-67
2023/10/03 09:12:05;;;;;;;11.90;4.90;;;24.40;99.90;;;;;;4446928;28;656752;-67
2023/10/03 09:14:53;;;;;;;13.13;5.28;;;24.60;99.90;;;;;;4441444;28;656424;-67
2023/10/03 09:17:42;;;;;;;12.05;5.50;;;24.90;99.90;;;;;;4449482;28;656140;-67
2023/10/03 09:20:31;;;;;;;14.77;4.80;;;24.80;99.90;;;;;;4426872;28;655457;-66
2023/10/03 09:23:18;;;;;;;8.27;4.43;;;24.80;99.90;;;;;;4426909;28;656127;-66
2023/10/03 09:26:06;;;;;;;11.45;4.90;;;24.90;99.90;;;;;;4449923;28;654672;-66
2023/10/03 09:28:53;;;;;;;10.10;4.83;;;25.10;99.90;;;;;;4429148;28;656192;-67
2023/10/03 09:31:41;;;;;;;11.63;4.93;;;24.80;99.00;;;;;;4446774;28;656614;-66
2023/10/03 09:34:32;;;;;;;13.80;5.15;;;24.90;99.90;;;;;;4436558;28;657276;-66
2023/10/03 09:37:19;;;;;;;12.07;4.93;;;25.30;96.70;;;;;;4429728;28;656676;-66
2023/10/03 09:40:16;;;;;;;12.45;5.40;;;24.90;99.90;;;;;;4449557;28;655398;-66
2023/10/03 09:43:11;;;;;;;8.80;4.47;;;25.60;99.90;;;;;;4402973;28;656017;-66
2023/10/03 09:46:00;;;;;;;9.63;4.53;;;25.40;82.70;;;;;;4428686;28;654678;-66
2023/10/03 09:48:53;;;;;;;11.38;4.70;;;25.70;97.40;;;;;;4443952;28;654488;-66
2023/10/03 09:51:51;;;;;;;8.38;4.68;;;26.00;87.60;;;;;;4424578;28;656951;-66
2023/10/03 09:54:39;;;;;;;10.45;5.15;;;26.50;73.70;;;;;;4399857;28;655417;-66
2023/10/03 09:57:28;;;;;;;9.15;4.70;;;27.00;71.70;;;;;;4445212;28;658010;-66
2023/10/03 10:00:25;;;;;;;10.45;4.57;;;26.60;86.80;;;;;;4423569;28;655824;-66
2023/10/03 10:03:19;;;;;;;8.45;4.60;;;27.20;86.50;;;;;;4449709;28;655621;-66
2023/10/03 10:06:14;;;;;;;12.48;4.50;;;27.20;75.20;;;;;;4423119;28;655036;-66
2023/10/03 10:09:13;;;;;;;12.13;4.80;;;27.20;67.60;;;;;;4426132;28;656709;-66
2023/10/03 10:12:14;;;;;;;10.52;4.57;;;27.30;65.50;;;;;;4401677;28;656273;-66
2023/10/03 10:15:21;;;;;;;10.07;4.83;;;27.40;68.20;;;;;;4431956;28;656058;-66
2023/10/03 10:18:10;;;;;;;14.40;4.63;;;27.60;64.50;;;;;;4402072;28;656143;-66
2023/10/03 10:21:25;;;;;;;10.32;4.82;;;27.60;62.70;;;;;;4436131;28;655422;-66
2023/10/03 10:24:28;;;;;;;9.77;4.90;;;27.60;59.90;;;;;;4419301;28;655845;-66
2023/10/03 10:27:21;;;;;;;11.77;4.97;;;27.00;60.00;;;;;;4438617;27;654801;-66
2023/10/03 10:30:13;;;;;;;10.00;4.95;;;26.60;64.50;;;;;;4407659;28;655927;-66
2023/10/03 10:33:22;;;;;;;10.77;4.57;;;27.00;65.70;;;;;;4428257;28;657766;-66
2023/10/03 10:36:10;;;;;;;12.80;5.32;;;26.90;59.10;;;;;;4407062;28;655853;-66
2023/10/03 10:38:57;;;;;;;10.82;5.03;;;26.70;62.00;;;;;;4445547;28;656712;-66
2023/10/03 10:41:46;;;;;;;12.35;4.78;;;26.00;61.90;;;;;;4454394;28;655386;-65
2023/10/03 10:44:33;;;;;;;13.40;4.97;;;26.70;76.60;;;;;;4438761;27;656686;-66
2023/10/03 10:47:21;;;;;;;12.05;4.88;;;27.20;62.60;;;;;;4448744;28;657250;-66
2023/10/03 10:50:08;;;;;;;13.10;5.80;;;26.90;59.50;;;;;;4426766;28;655642;-66
2023/10/03 10:52:57;;;;;;;10.32;5.43;;;26.30;64.30;;;;;;4453296;28;655927;-66
2023/10/03 10:55:44;;;;;;;13.00;5.18;;;26.20;67.20;;;;;;4436617;28;655302;-66
2023/10/03 10:58:33;;;;;;;13.68;4.90;;;26.70;62.50;;;;;;4452102;28;655302;-66
2023/10/03 11:01:20;;;;;;;13.77;5.63;;;26.90;70.10;;;;;;4426745;28;656262;-66
2023/10/03 11:04:08;;;;;;;9.20;4.80;;;27.50;60.80;;;;;;4440158;28;655738;-66
2023/10/03 11:06:55;;;;;;;12.07;5.50;;;27.40;62.10;;;;;;4459573;28;655512;-66
2023/10/03 11:09:43;;;;;;;12.48;5.57;;;27.30;62.90;;;;;;4443794;28;656454;-66
2023/10/03 11:12:30;;;;;;;15.35;5.00;;;27.20;57.70;;;;;;4457073;28;656780;-66
2023/10/03 11:15:19;;;;;;;14.50;5.45;;;27.20;55.00;;;;;;4436674;28;655558;-66
2023/10/03 11:18:06;;;;;;;11.75;5.32;;;27.00;57.00;;;;;;4451869;28;655524;-65
2023/10/03 11:20:55;;;;;;;10.80;5.22;;;26.80;58.20;;;;;;4430139;28;656391;-66
2023/10/03 11:24:04;;;;;;;13.07;5.47;;;27.00;55.60;;;;;;4442651;28;655925;-65
2023/10/03 11:26:53;;;;;;;13.38;5.50;;;26.90;56.40;;;;;;4433421;28;656238;-65
2023/10/03 11:29:44;;;;;;;15.48;5.53;;;26.80;58.50;;;;;;4440111;28;655477;-66
2023/10/03 11:32:33;;;;;;;12.57;5.97;;;27.00;58.80;;;;;;4426012;28;655884;-65
2023/10/03 11:35:21;;;;;;;11.82;5.47;;;26.60;59.40;;;;;;4434194;28;656215;-66
2023/10/03 11:38:08;;;;;;;14.68;5.22;;;27.40;65.30;;;;;;4421554;28;656402;-66
2023/10/03 11:40:56;;;;;;;12.73;5.43;;;27.60;60.00;;;;;;4462076;27;655761;-66
2023/10/03 11:43:46;;;;;;;10.88;4.65;;;27.00;60.00;;;;;;4430777;28;655413;-66
2023/10/03 11:46:37;;;;;;;12.35;5.63;;;26.90;56.60;;;;;;4432378;28;655649;-65
2023/10/03 11:49:27;;;;;;;13.43;5.47;;;26.60;61.00;;;;;;4433138;28;656438;-65
2023/10/03 11:52:14;;;;;;;12.05;5.45;;;27.00;59.90;;;;;;4430026;28;656243;-65
2023/10/03 11:55:02;;;;;;;14.20;6.28;;;27.40;58.80;;;;;;4456429;28;656530;-65
2023/10/03 11:57:50;;;;;;;9.18;5.03;;;27.80;58.60;;;;;;4426302;28;655932;-65
2023/10/03 12:00:42;;;;;;;12.82;5.38;;;27.60;58.00;;;;;;4437172;28;654366;-66
2023/10/03 12:03:30;;;;;;;13.77;5.70;;;28.00;57.10;;;;;;4430684;28;656408;-65
2023/10/03 12:06:19;;;;;;;14.68;6.18;;;27.30;56.90;;;;;;4443093;28;655747;-66
2023/10/03 12:09:09;;;;;;;14.48;5.63;;;27.90;60.50;;;;;;4448338;28;655995;-66
2023/10/03 12:11:56;;;;;;;15.00;5.97;;;28.90;58.40;;;;;;4429893;28;657317;-65
2023/10/03 12:14:45;;;;;;;15.52;6.22;;;27.50;57.10;;;;;;4431386;28;655376;-66
2023/10/03 12:17:33;;;;;;;13.93;5.93;;;28.10;58.60;;;;;;4436005;28;655677;-65
2023/10/03 12:20:20;;;;;;;17.73;6.43;;;28.00;55.80;;;;;;4454279;28;656185;-65
2023/10/03 12:23:09;;;;;;;13.13;6.03;;;27.70;58.40;;;;;;4429327;28;655584;-65
2023/10/03 12:25:56;;;;;;;13.93;5.95;;;27.90;55.80;;;;;;4452148;27;655199;-65
2023/10/03 12:28:43;;;;;;;16.25;6.40;;;27.90;54.10;;;;;;4440382;28;656021;-65
2023/10/03 12:31:31;;;;;;;14.27;6.05;;;27.70;54.90;;;;;;4445432;27;655350;-65
2023/10/03 12:34:19;;;;;;;14.05;6.88;;;27.20;56.60;;;;;;4424796;28;655672;-65
2023/10/03 12:37:11;;;;;;;13.38;6.32;;;27.60;58.80;;;;;;4447736;28;656294;-65
2023/10/03 12:40:04;;;;;;;14.27;6.72;;;28.30;54.20;;;;;;4404612;28;656308;-65
2023/10/03 12:42:51;;;;;;;14.30;6.63;;;28.10;56.60;;;;;;4421035;28;656266;-66
2023/10/03 12:45:38;;;;;;;15.35;6.85;;;28.90;53.40;;;;;;4430104;28;656390;-66
2023/10/03 12:48:26;;;;;;;15.98;6.43;;;29.00;54.80;;;;;;4448589;28;656989;-66
2023/10/03 12:51:13;;;;;;;15.93;6.70;;;29.00;56.00;;;;;;4435357;28;656388;-66
2023/10/03 12:54:04;;;;;;;17.45;7.82;;;29.20;53.60;;;;;;4459150;28;657253;-66
2023/10/03 12:56:52;;;;;;;14.35;6.88;;;28.40;54.90;;;;;;4430140;28;656704;-66
2023/10/03 12:59:44;;;;;;;16.33;7.13;;;29.00;56.60;;;;;;4427218;28;657649;-65
2023/10/03 13:02:31;;;;;;;18.77;7.00;;;29.30;52.20;;;;;;4436619;27;657524;-66
2023/10/03 13:05:20;;;;;;;13.45;6.60;;;28.80;55.50;;;;;;4429231;28;656344;-65
2023/10/03 13:08:08;;;;;;;16.13;7.47;;;29.20;50.70;;;;;;4443111;28;656835;-66
2023/10/03 13:11:01;;;;;;;17.77;6.97;;;28.70;52.60;;;;;;4440836;28;656460;-65
2023/10/03 13:13:51;;;;;;;16.15;7.28;;;28.80;53.60;;;;;;4407329;28;657251;-66
2023/10/03 13:16:39;;;;;;;20.30;7.75;;;28.40;54.00;;;;;;4425664;28;657583;-65
2023/10/03 13:19:27;;;;;;;14.52;7.68;;;28.90;52.70;;;;;;4453508;28;658116;-65
2023/10/03 13:22:14;;;;;;;17.85;7.88;;;28.90;55.40;;;;;;4430582;28;656496;-65
2023/10/03 13:25:03;;;;;;;18.98;7.07;;;27.60;55.60;;;;;;4451755;28;656481;-65
2023/10/03 13:27:52;;;;;;;15.80;7.70;;;27.80;54.70;;;;;;4431362;28;657698;-65
2023/10/03 13:30:41;;;;;;;22.00;8.00;;;27.90;55.60;;;;;;4423988;28;658038;-65
2023/10/03 13:33:28;;;;;;;16.40;7.05;;;28.00;55.50;;;;;;4427836;28;656520;-65
2023/10/03 13:36:17;;;;;;;19.63;7.03;;;27.60;55.90;;;;;;4453168;28;657218;-65
2023/10/03 13:39:06;;;;;;;22.23;8.45;;;27.00;56.90;;;;;;4430054;28;657558;-65
2023/10/03 13:41:54;;;;;;;17.55;7.70;;;26.70;57.40;;;;;;4429161;28;657186;-65
2023/10/03 13:44:43;;;;;;;20.08;7.38;;;26.40;58.40;;;;;;4446998;28;657563;-65
2023/10/03 13:47:32;;;;;;;17.42;7.80;;;26.80;58.80;;;;;;4431664;28;656824;-65
2023/10/03 13:50:19;;;;;;;19.13;7.95;;;26.60;60.00;;;;;;4431141;28;657989;-65
2023/10/03 13:53:09;;;;;;;17.08;7.47;;;26.40;59.30;;;;;;4453472;28;658241;-65
2023/10/03 13:55:58;;;;;;;19.88;8.10;;;26.40;58.20;;;;;;4433836;28;657272;-65
2023/10/03 13:58:45;;;;;;;17.05;6.97;;;26.40;58.00;;;;;;4434078;28;657646;-65
2023/10/03 14:01:33;;;;;;;19.92;8.57;;;26.40;58.30;;;;;;4431635;28;657036;-65
2023/10/03 14:04:22;;;;;;;22.13;8.18;;;26.20;61.20;;;;;;4459576;28;657515;-65
2023/10/03 14:07:09;;;;;;;19.60;7.85;;;25.80;57.60;;;;;;4429530;28;656514;-65
2023/10/03 14:09:57;;;;;;;24.58;8.75;;;25.90;60.00;;;;;;4453279;28;657402;-65
2023/10/03 14:12:44;;;;;;;19.02;8.30;;;25.80;59.80;;;;;;4424706;28;656870;-65
2023/10/03 14:15:33;;;;;;;20.88;8.27;;;25.90;60.20;;;;;;4454262;28;657129;-65
2023/10/03 14:18:20;;;;;;;17.02;7.82;;;25.90;58.90;;;;;;4426343;28;658153;-65